Time;durP1;ratioP1;P1;durP2;ratioP2;P2;SDS_P1;SDS_P2;PMS_P1;PMS_P2;Temp;Humidity;BMP_temperature;BMP_pressure;BME280_temperature;BME280_humidity;BME280_pressure;Samples;Min_cycle;Max_cycle;Signal;HPM_P1;HPM_P2
2021/05/20 00:02:09;;;;;;;32.77;21.07;;;10.20;99.90;;;;;;5035127;28;20495;-75
2021/05/20 00:04:35;;;;;;;35.60;21.10;;;10.20;99.90;;;;;;5034865;28;20949;-75
2021/05/20 00:07:01;;;;;;;36.80;22.50;;;10.20;99.90;;;;;;5035179;28;20186;-75
2021/05/20 00:09:26;;;;;;;32.93;20.97;;;10.20;99.90;;;;;;5016889;28;20566;-75
2021/05/20 00:11:52;;;;;;;31.23;20.93;;;10.20;99.90;;;;;;5034245;28;20622;-76
2021/05/20 00:14:17;;;;;;;32.77;20.70;;;10.20;99.90;;;;;;5032724;28;20221;-76
2021/05/20 00:16:43;;;;;;;32.90;20.87;;;10.10;99.90;;;;;;5033973;28;20183;-74
2021/05/20 00:19:09;;;;;;;33.70;21.60;;;10.10;99.90;;;;;;5033439;28;20202;-75
2021/05/20 00:21:35;;;;;;;31.50;20.70;;;10.20;99.90;;;;;;5034115;28;20187;-75
2021/05/20 00:24:01;;;;;;;36.80;20.60;;;10.10;99.90;;;;;;5033701;28;20199;-74
2021/05/20 00:26:26;;;;;;;28.77;18.83;;;10.10;99.90;;;;;;5036895;28;20826;-74
2021/05/20 00:28:52;;;;;;;35.90;20.53;;;10.10;99.90;;;;;;5037750;28;20490;-75
2021/05/20 00:31:17;;;;;;;31.27;20.93;;;10.10;99.90;;;;;;5037017;28;20210;-74
2021/05/20 00:33:44;;;;;;;30.80;19.47;;;10.00;99.90;;;;;;5035633;28;20296;-75
2021/05/20 00:36:11;;;;;;;33.23;19.63;;;10.00;99.90;;;;;;5035970;28;20559;-75
2021/05/20 00:41:11;;;;;;;28.50;19.10;;;9.90;99.90;;;;;;5071963;28;20467;-70
2021/05/20 00:43:40;;;;;;;33.70;21.97;;;10.00;99.90;;;;;;5074421;28;20437;-68
2021/05/20 00:46:06;;;;;;;30.30;20.40;;;10.00;99.90;;;;;;5074643;28;20172;-68
2021/05/20 00:48:32;;;;;;;29.07;19.10;;;9.80;99.90;;;;;;5074483;28;20408;-68
2021/05/20 00:50:57;;;;;;;27.63;18.47;;;9.80;99.90;;;;;;5074345;28;20484;-70
2021/05/20 00:53:23;;;;;;;28.60;19.17;;;10.00;99.90;;;;;;5074379;28;20178;-68
2021/05/20 00:55:50;;;;;;;32.17;20.00;;;9.90;99.90;;;;;;5074499;28;20644;-68
2021/05/20 00:58:17;;;;;;;35.37;21.07;;;9.80;99.90;;;;;;5074361;28;20176;-68
2021/05/20 01:00:42;;;;;;;31.27;19.60;;;9.90;99.90;;;;;;5074217;28;20523;-68
2021/05/20 01:03:08;;;;;;;35.73;20.90;;;9.80;99.90;;;;;;5074042;28;20506;-68
2021/05/20 01:05:33;;;;;;;31.87;18.90;;;9.80;99.90;;;;;;5074495;28;20172;-68
2021/05/20 01:07:59;;;;;;;26.80;19.37;;;9.80;99.90;;;;;;5065322;28;20180;-68
2021/05/20 01:10:25;;;;;;;33.67;19.60;;;9.80;99.90;;;;;;5034465;28;20245;-68
2021/05/20 01:12:50;;;;;;;33.67;21.83;;;9.90;99.90;;;;;;5033966;28;20175;-68
2021/05/20 01:15:24;;;;;;;34.00;20.30;;;9.90;99.90;;;;;;5034293;28;20183;-68
2021/05/20 01:17:52;;;;;;;33.40;21.90;;;9.90;99.90;;;;;;5034267;28;20293;-69
2021/05/20 01:20:20;;;;;;;31.70;20.57;;;10.00;99.90;;;;;;5034195;28;20436;-69
2021/05/20 01:22:46;;;;;;;34.07;22.53;;;10.00;99.90;;;;;;5034360;28;20508;-69
2021/05/20 01:25:12;;;;;;;35.23;22.90;;;9.90;99.90;;;;;;5034363;28;20687;-68
2021/05/20 01:27:40;;;;;;;33.80;21.27;;;10.10;99.90;;;;;;5034175;28;20412;-68
2021/05/20 01:30:07;;;;;;;35.40;23.70;;;10.20;99.90;;;;;;5034122;28;20818;-68
2021/05/20 01:32:32;;;;;;;42.27;27.20;;;10.30;99.90;;;;;;5034121;28;20486;-68
2021/05/20 01:34:58;;;;;;;43.33;24.83;;;10.30;99.90;;;;;;5034259;28;20427;-69
2021/05/20 01:37:24;;;;;;;38.23;23.50;;;10.30;99.90;;;;;;5033615;28;20630;-68
2021/05/20 01:39:50;;;;;;;38.90;24.50;;;10.40;99.90;;;;;;5033780;28;20454;-68
2021/05/20 01:42:15;;;;;;;41.40;25.47;;;10.30;99.90;;;;;;5034318;28;20228;-68
2021/05/20 01:44:41;;;;;;;38.53;25.17;;;10.30;99.90;;;;;;5033986;28;20460;-69
2021/05/20 01:47:06;;;;;;;37.33;24.40;;;10.20;99.90;;;;;;5038292;28;20169;-68
2021/05/20 01:49:32;;;;;;;40.37;24.73;;;10.10;99.90;;;;;;5073923;28;20578;-68
2021/05/20 01:51:58;;;;;;;35.20;24.83;;;10.00;99.90;;;;;;5074317;28;20177;-68
2021/05/20 01:54:23;;;;;;;37.00;23.20;;;10.00;99.90;;;;;;5073579;28;20178;-68
2021/05/20 01:56:49;;;;;;;39.23;23.63;;;10.00;99.90;;;;;;5072809;28;20562;-68
2021/05/20 01:59:15;;;;;;;37.27;24.30;;;10.00;99.90;;;;;;5073678;28;20194;-68
2021/05/20 02:01:41;;;;;;;39.17;24.53;;;10.00;99.90;;;;;;5073649;28;20180;-68
2021/05/20 02:04:07;;;;;;;40.30;25.03;;;9.80;99.90;;;;;;5073438;28;20453;-68
2021/05/20 02:06:32;;;;;;;38.40;25.40;;;9.80;99.90;;;;;;5073543;28;20171;-68
2021/05/20 02:08:58;;;;;;;40.53;25.23;;;9.70;99.90;;;;;;5047769;28;20195;-68
2021/05/20 02:11:24;;;;;;;42.33;24.50;;;9.70;99.90;;;;;;5033470;28;20423;-68
2021/05/20 02:13:49;;;;;;;39.80;24.30;;;9.60;99.90;;;;;;5033350;28;20172;-68
2021/05/20 02:16:15;;;;;;;39.00;24.40;;;9.70;99.90;;;;;;5033433;28;20183;-68
2021/05/20 02:18:42;;;;;;;46.87;26.83;;;9.70;99.90;;;;;;5033334;28;20285;-68
2021/05/20 02:21:08;;;;;;;37.93;24.70;;;9.80;99.90;;;;;;5033219;28;20176;-68
2021/05/20 02:23:33;;;;;;;44.33;27.53;;;9.80;99.90;;;;;;5033083;28;20462;-68
2021/05/20 02:25:59;;;;;;;46.40;26.83;;;9.80;99.90;;;;;;5033073;28;20223;-68
2021/05/20 02:28:25;;;;;;;44.53;27.73;;;9.80;99.90;;;;;;5032025;28;20545;-68
2021/05/20 02:30:51;;;;;;;41.37;26.37;;;9.80;99.90;;;;;;5033025;28;20544;-68
2021/05/20 02:33:16;;;;;;;41.23;27.87;;;9.70;99.90;;;;;;5032609;28;20427;-69
2021/05/20 02:35:42;;;;;;;49.20;29.23;;;9.70;99.90;;;;;;5033738;28;20610;-68
2021/05/20 02:38:08;;;;;;;47.20;29.03;;;9.80;99.90;;;;;;5032895;28;20247;-68
2021/05/20 02:40:34;;;;;;;50.57;27.13;;;9.80;99.90;;;;;;5033152;28;20803;-68
2021/05/20 02:43:00;;;;;;;42.93;26.50;;;9.80;99.90;;;;;;5032687;28;20586;-68
2021/05/20 02:45:27;;;;;;;47.23;28.90;;;9.80;99.90;;;;;;5033205;28;20531;-68
2021/05/20 02:47:53;;;;;;;49.37;30.27;;;9.80;99.90;;;;;;5049138;28;20414;-68
2021/05/20 02:50:20;;;;;;;50.33;29.97;;;9.80;99.90;;;;;;5072750;28;20954;-68
2021/05/20 02:52:46;;;;;;;46.50;28.40;;;9.70;99.90;;;;;;5072793;28;20517;-68
2021/05/20 02:55:16;;;;;;;50.77;31.03;;;9.60;99.90;;;;;;5072948;28;20471;-68
2021/05/20 02:57:44;;;;;;;53.43;31.17;;;9.60;99.90;;;;;;5072954;28;20183;-68
2021/05/20 03:00:11;;;;;;;52.37;32.20;;;9.60;99.90;;;;;;5072513;28;20836;-68
2021/05/20 03:02:37;;;;;;;58.60;32.83;;;9.50;99.90;;;;;;5072445;28;20810;-68
2021/05/20 03:05:06;;;;;;;52.67;29.20;;;9.30;99.90;;;;;;5072282;28;20945;-68
2021/05/20 03:07:33;;;;;;;57.10;30.37;;;9.30;99.90;;;;;;5070346;28;20409;-68
2021/05/20 03:09:59;;;;;;;61.70;30.50;;;9.40;99.90;;;;;;5032250;28;20416;-68
2021/05/20 03:12:24;;;;;;;56.07;30.30;;;9.30;99.90;;;;;;5032290;28;20943;-68
2021/05/20 03:14:50;;;;;;;54.30;30.40;;;9.10;99.90;;;;;;5031899;28;20177;-68
2021/05/20 03:17:16;;;;;;;54.20;32.27;;;9.00;99.90;;;;;;5030965;28;20609;-68
2021/05/20 03:19:41;;;;;;;50.27;29.53;;;9.20;99.90;;;;;;5032018;28;20678;-68
2021/05/20 03:22:08;;;;;;;54.00;31.40;;;9.10;99.90;;;;;;5032204;28;20599;-70
2021/05/20 03:24:34;;;;;;;57.20;33.93;;;9.20;99.90;;;;;;5032152;28;20682;-71
2021/05/20 03:27:00;;;;;;;62.40;34.93;;;9.50;99.90;;;;;;5032012;28;20417;-70
2021/05/20 03:29:26;;;;;;;57.97;33.63;;;9.40;99.90;;;;;;5032237;28;20489;-70
2021/05/20 03:31:52;;;;;;;68.93;36.10;;;9.40;99.90;;;;;;5032133;28;20494;-70
2021/05/20 03:34:18;;;;;;;66.40;36.57;;;9.30;99.90;;;;;;5031927;28;20634;-71
2021/05/20 03:36:43;;;;;;;70.93;38.33;;;9.40;99.90;;;;;;5032238;28;20186;-70
2021/05/20 03:39:09;;;;;;;71.67;38.03;;;9.50;99.90;;;;;;5032201;28;20199;-70
2021/05/20 03:41:34;;;;;;;70.07;37.80;;;9.60;99.90;;;;;;5032116;28;20173;-70
2021/05/20 03:44:00;;;;;;;71.40;39.67;;;9.60;99.90;;;;;;5031729;28;20239;-70
2021/05/20 03:46:26;;;;;;;76.07;39.50;;;9.50;99.90;;;;;;5032328;28;20170;-70
2021/05/20 03:48:51;;;;;;;75.30;38.70;;;9.60;99.90;;;;;;5064605;28;20256;-69
2021/05/20 03:51:17;;;;;;;76.67;38.63;;;9.50;99.90;;;;;;5072077;28;20666;-69
2021/05/20 03:53:42;;;;;;;86.20;41.33;;;9.60;99.90;;;;;;5071592;28;20542;-69
2021/05/20 03:56:08;;;;;;;77.07;40.90;;;9.50;99.90;;;;;;5071709;28;20184;-70
2021/05/20 03:58:33;;;;;;;79.77;41.90;;;9.60;99.90;;;;;;5072166;28;20174;-69
2021/05/20 04:00:59;;;;;;;81.80;42.20;;;9.50;99.90;;;;;;5071190;28;20284;-70
2021/05/20 04:03:33;;;;;;;72.17;41.80;;;9.60;99.90;;;;;;5071544;28;20184;-70
2021/05/20 04:06:01;;;;;;;78.33;42.90;;;9.60;99.90;;;;;;5071819;28;20177;-70
2021/05/20 04:08:27;;;;;;;72.90;39.90;;;9.60;99.90;;;;;;5054536;28;20421;-70
2021/05/20 04:10:54;;;;;;;80.07;42.77;;;9.70;99.90;;;;;;5031521;28;20433;-69
2021/05/20 04:13:30;;;;;;;77.60;41.10;;;9.60;99.90;;;;;;5031351;28;20439;-69
2021/05/20 04:15:56;;;;;;;81.47;42.43;;;9.50;99.90;;;;;;5031596;28;20419;-70
2021/05/20 04:18:22;;;;;;;77.37;42.00;;;9.70;99.90;;;;;;5030306;28;20786;-70
2021/05/20 04:20:48;;;;;;;79.40;42.87;;;9.90;99.90;;;;;;5031475;28;20426;-70
2021/05/20 04:23:14;;;;;;;80.23;42.80;;;10.00;99.90;;;;;;5031280;28;21012;-70
2021/05/20 04:25:40;;;;;;;78.13;41.60;;;10.00;99.90;;;;;;5031655;28;20448;-70
2021/05/20 04:28:06;;;;;;;79.27;43.80;;;10.00;99.90;;;;;;5031219;28;20456;-70
2021/05/20 04:30:31;;;;;;;76.20;43.30;;;9.80;99.90;;;;;;5031566;28;20204;-70
2021/05/20 04:32:57;;;;;;;70.40;40.77;;;9.90;99.90;;;;;;5031076;28;20180;-69
2021/05/20 04:35:22;;;;;;;82.00;43.23;;;9.90;99.90;;;;;;5031517;28;20178;-70
2021/05/20 04:37:48;;;;;;;75.57;39.00;;;9.70;99.90;;;;;;5031380;28;20672;-70
2021/05/20 04:40:14;;;;;;;74.27;40.30;;;9.70;99.90;;;;;;5031268;28;20212;-70
2021/05/20 04:42:39;;;;;;;77.27;40.60;;;9.70;99.90;;;;;;5031274;28;20260;-71
2021/05/20 04:45:05;;;;;;;74.63;39.90;;;9.70;99.90;;;;;;5029928;28;20468;-70
2021/05/20 04:47:31;;;;;;;91.23;42.10;;;9.80;99.90;;;;;;5041879;28;20173;-70
2021/05/20 04:49:57;;;;;;;81.10;41.30;;;9.80;99.90;;;;;;5071191;28;20436;-71
2021/05/20 04:52:22;;;;;;;85.13;43.27;;;9.80;99.90;;;;;;5071455;28;20199;-70
2021/05/20 04:54:48;;;;;;;85.13;42.17;;;9.80;99.90;;;;;;5070993;28;20176;-70
2021/05/20 04:57:13;;;;;;;94.47;45.57;;;9.80;99.90;;;;;;5071288;28;20180;-70
2021/05/20 04:59:39;;;;;;;81.47;41.47;;;9.70;99.90;;;;;;5071567;28;20196;-71
2021/05/20 05:02:05;;;;;;;81.80;43.87;;;9.70;99.90;;;;;;5070107;28;20295;-70
2021/05/20 05:04:31;;;;;;;73.53;40.53;;;9.80;99.90;;;;;;5071172;28;20251;-70
2021/05/20 05:06:56;;;;;;;74.87;40.57;;;9.80;99.90;;;;;;5071493;28;20423;-70
2021/05/20 05:09:22;;;;;;;78.40;42.17;;;9.80;99.90;;;;;;5039577;28;20214;-70
2021/05/20 05:11:48;;;;;;;78.50;41.83;;;9.90;99.90;;;;;;5032950;28;20654;-70
2021/05/20 05:14:13;;;;;;;88.90;42.10;;;9.90;99.90;;;;;;5036282;28;20562;-69
2021/05/20 05:16:39;;;;;;;80.70;42.13;;;9.80;99.90;;;;;;5035260;28;20237;-70
2021/05/20 05:19:05;;;;;;;82.40;42.53;;;9.90;99.90;;;;;;5034325;28;20568;-70
2021/05/20 05:21:30;;;;;;;91.33;43.73;;;10.10;99.90;;;;;;5036455;28;20186;-70
2021/05/20 05:23:56;;;;;;;85.83;43.30;;;10.00;99.90;;;;;;5035016;28;20257;-71
2021/05/20 05:26:23;;;;;;;87.83;43.80;;;10.10;99.90;;;;;;5033074;28;20179;-70
2021/05/20 05:28:48;;;;;;;89.63;43.10;;;10.00;99.90;;;;;;5034271;28;20270;-70
2021/05/20 05:31:16;;;;;;;86.40;43.37;;;10.10;99.90;;;;;;5034330;28;20443;-70
2021/05/20 05:33:42;;;;;;;86.80;44.30;;;9.90;99.90;;;;;;5034046;28;20186;-70
2021/05/20 05:36:08;;;;;;;90.33;45.80;;;10.10;99.90;;;;;;5034452;28;20982;-70
2021/05/20 05:38:33;;;;;;;87.53;45.70;;;10.00;99.90;;;;;;5033999;28;20594;-70
2021/05/20 05:41:02;;;;;;;93.07;45.50;;;10.10;99.90;;;;;;5033917;28;20221;-70
2021/05/20 05:43:28;;;;;;;90.10;45.90;;;10.10;99.90;;;;;;5034005;28;20179;-70
2021/05/20 05:45:53;;;;;;;88.80;44.07;;;10.00;99.90;;;;;;5033973;28;20952;-71
2021/05/20 05:48:19;;;;;;;86.50;43.73;;;10.00;99.90;;;;;;5057822;28;20178;-71
2021/05/20 05:50:46;;;;;;;90.53;45.33;;;10.20;99.90;;;;;;5074735;28;20186;-71
2021/05/20 05:53:12;;;;;;;85.40;43.63;;;10.20;99.90;;;;;;5073048;28;20408;-71
2021/05/20 05:55:37;;;;;;;93.33;43.10;;;10.20;99.90;;;;;;5072544;28;20491;-71
2021/05/20 05:58:03;;;;;;;81.60;42.43;;;10.20;99.90;;;;;;5073644;28;20552;-71
2021/05/20 06:00:28;;;;;;;85.40;44.00;;;10.40;99.90;;;;;;5073678;28;20685;-71
2021/05/20 06:02:54;;;;;;;96.43;46.47;;;10.50;99.90;;;;;;5073311;28;20182;-70
2021/05/20 06:05:20;;;;;;;87.43;43.73;;;10.50;99.90;;;;;;5073923;28;20202;-71
2021/05/20 06:07:46;;;;;;;89.07;44.17;;;10.50;99.90;;;;;;5068850;28;20208;-70
2021/05/20 06:10:12;;;;;;;92.37;45.17;;;10.60;99.90;;;;;;5033651;28;20532;-70
2021/05/20 06:12:38;;;;;;;87.60;43.40;;;10.50;99.90;;;;;;5033131;28;20229;-71
2021/05/20 06:15:05;;;;;;;83.63;42.23;;;10.60;99.90;;;;;;5033365;28;20180;-70
2021/05/20 06:17:31;;;;;;;88.43;42.40;;;10.80;99.90;;;;;;5032060;28;20448;-70
2021/05/20 06:19:56;;;;;;;90.07;42.27;;;10.70;99.90;;;;;;5032999;28;20930;-70
2021/05/20 06:22:22;;;;;;;88.23;43.27;;;10.70;99.90;;;;;;5033125;28;20510;-70
2021/05/20 06:24:48;;;;;;;95.17;44.10;;;10.70;99.90;;;;;;5032417;28;20207;-70
2021/05/20 06:27:13;;;;;;;93.50;47.00;;;10.60;99.90;;;;;;5031684;28;20263;-71
2021/05/20 06:29:39;;;;;;;93.43;46.67;;;10.90;99.90;;;;;;5034512;28;20605;-71
2021/05/20 06:32:05;;;;;;;109.57;48.40;;;10.90;99.90;;;;;;5033447;28;20180;-70
2021/05/20 06:34:30;;;;;;;107.53;47.80;;;11.00;99.90;;;;;;5033058;28;20171;-71
2021/05/20 06:36:59;;;;;;;99.33;48.43;;;11.00;99.90;;;;;;5033007;28;20191;-70
2021/05/20 06:39:24;;;;;;;85.50;43.40;;;11.10;99.90;;;;;;5032594;28;20683;-71
2021/05/20 06:41:50;;;;;;;84.97;40.80;;;11.30;99.90;;;;;;5034639;28;20424;-71
2021/05/20 06:44:15;;;;;;;98.93;44.93;;;11.20;99.90;;;;;;5032856;28;20572;-71
2021/05/20 06:46:41;;;;;;;95.20;41.97;;;11.30;99.90;;;;;;5033226;28;20257;-70
2021/05/20 06:49:08;;;;;;;87.67;44.73;;;11.20;99.90;;;;;;5069643;28;20269;-70
2021/05/20 06:51:34;;;;;;;94.20;44.10;;;11.20;99.90;;;;;;5073305;28;20174;-71
2021/05/20 06:54:00;;;;;;;97.33;45.10;;;11.10;99.90;;;;;;5070975;28;20416;-70
2021/05/20 06:56:28;;;;;;;93.87;45.40;;;11.20;99.90;;;;;;5072767;28;20471;-72
2021/05/20 07:01:44;;;;;;;85.17;43.30;;;11.50;99.90;;;;;;5072640;28;20793;-71
2021/05/20 07:04:10;;;;;;;90.53;43.27;;;11.90;99.90;;;;;;5071993;28;20959;-71
2021/05/20 07:06:35;;;;;;;94.43;44.30;;;12.00;99.90;;;;;;5072329;28;20415;-71
2021/05/20 07:09:01;;;;;;;94.17;43.03;;;11.80;99.90;;;;;;5045836;28;20222;-71
2021/05/20 07:11:30;;;;;;;97.40;42.63;;;11.70;99.90;;;;;;5032409;28;20167;-70
2021/05/20 07:13:56;;;;;;;101.10;44.70;;;11.70;99.90;;;;;;5032225;28;20172;-70
2021/05/20 07:16:22;;;;;;;101.13;44.50;;;11.70;99.90;;;;;;5033485;28;20443;-70
2021/05/20 07:18:47;;;;;;;111.77;46.17;;;11.80;99.90;;;;;;5032249;28;20178;-69
2021/05/20 07:21:13;;;;;;;113.80;49.77;;;11.90;99.90;;;;;;5037437;28;20954;-71
2021/05/20 07:23:39;;;;;;;121.60;49.53;;;11.80;99.90;;;;;;5051986;28;20336;-71
2021/05/20 07:26:04;;;;;;;111.70;47.93;;;11.60;99.90;;;;;;5043487;28;20344;-71
2021/05/20 07:28:31;;;;;;;105.43;45.90;;;11.70;99.90;;;;;;5050178;28;20183;-70
2021/05/20 07:30:56;;;;;;;109.70;45.50;;;11.70;99.90;;;;;;5052398;28;20195;-73
2021/05/20 07:33:23;;;;;;;98.63;46.40;;;11.60;99.90;;;;;;5050065;28;20429;-71
2021/05/20 07:35:49;;;;;;;116.47;49.47;;;11.70;99.90;;;;;;5051903;28;20175;-69
2021/05/20 07:38:14;;;;;;;115.93;50.40;;;11.80;99.90;;;;;;5052333;28;20428;-71
2021/05/20 07:40:40;;;;;;;114.07;48.30;;;11.90;99.90;;;;;;5052477;28;20207;-70
2021/05/20 07:43:05;;;;;;;99.97;42.47;;;11.90;99.90;;;;;;5051834;28;20183;-69
2021/05/20 07:45:31;;;;;;;108.83;46.53;;;12.20;99.90;;;;;;5047211;28;20206;-70
2021/05/20 07:47:57;;;;;;;91.70;43.77;;;12.30;99.90;;;;;;5050437;28;20530;-70
2021/05/20 07:50:22;;;;;;;97.53;43.90;;;12.30;99.90;;;;;;5068500;28;20218;-71
2021/05/20 07:52:48;;;;;;;109.70;44.53;;;12.40;99.90;;;;;;5051131;28;20262;-71
2021/05/20 07:55:14;;;;;;;100.57;45.27;;;12.50;96.00;;;;;;5050329;28;20182;-70
2021/05/20 07:57:40;;;;;;;89.67;43.53;;;12.50;94.30;;;;;;5052168;28;20262;-70
2021/05/20 08:00:08;;;;;;;91.73;44.00;;;12.50;90.60;;;;;;5050672;28;20462;-70
2021/05/20 08:03:02;;;;;;;88.90;40.90;;;12.70;82.60;;;;;;5051792;28;20418;-70
2021/05/20 08:05:39;;;;;;;96.47;41.20;;;12.80;83.80;;;;;;5051053;28;20465;-70
2021/05/20 08:10:55;;;;;;;72.80;36.40;;;13.20;74.10;;;;;;5050330;28;20476;-71
2021/05/20 08:13:21;;;;;;;78.43;38.40;;;13.40;66.30;;;;;;5052553;28;20464;-72
2021/05/20 08:15:47;;;;;;;71.50;37.30;;;13.60;61.90;;;;;;5052201;28;20444;-70
2021/05/20 08:18:14;;;;;;;74.83;38.13;;;13.80;56.70;;;;;;5060647;28;20560;-71
2021/05/20 08:20:40;;;;;;;73.33;37.90;;;14.00;53.30;;;;;;5061306;28;20543;-71
2021/05/20 08:23:05;;;;;;;75.87;36.50;;;13.70;56.50;;;;;;5032802;28;20824;-72
2021/05/20 08:25:31;;;;;;;68.70;36.60;;;13.70;56.60;;;;;;5035874;28;20559;-71
2021/05/20 08:27:57;;;;;;;70.47;36.30;;;13.50;58.00;;;;;;5052416;28;20177;-72
2021/05/20 08:30:23;;;;;;;66.00;35.13;;;14.10;55.10;;;;;;5051283;28;20208;-72
2021/05/20 08:32:49;;;;;;;71.30;35.90;;;14.20;51.50;;;;;;5051879;28;20222;-71
2021/05/20 08:35:15;;;;;;;64.33;34.77;;;14.00;53.70;;;;;;5051187;28;20181;-71
2021/05/20 08:37:41;;;;;;;82.63;37.27;;;13.70;54.50;;;;;;5058628;28;20416;-70
2021/05/20 08:40:09;;;;;;;81.17;39.10;;;13.40;56.70;;;;;;5063399;28;20783;-71
2021/05/20 08:42:35;;;;;;;71.63;36.30;;;13.40;58.40;;;;;;5051478;28;20431;-71
2021/05/20 08:45:14;;;;;;;79.50;38.33;;;13.40;58.10;;;;;;5050152;28;20437;-72
2021/05/20 08:47:40;;;;;;;71.83;39.70;;;13.50;58.30;;;;;;5048332;28;20669;-71
2021/05/20 08:50:07;;;;;;;63.37;35.27;;;13.80;57.90;;;;;;5075193;28;20406;-71
2021/05/20 08:52:36;;;;;;;50.80;30.03;;;14.30;53.30;;;;;;5055978;28;20420;-71
2021/05/20 08:55:02;;;;;;;59.43;31.50;;;14.80;47.10;;;;;;5054797;28;20383;-71
2021/05/20 08:57:28;;;;;;;50.73;29.27;;;15.30;42.10;;;;;;5054716;28;20428;-71
2021/05/20 08:59:54;;;;;;;51.80;31.10;;;15.50;40.00;;;;;;5055439;28;20412;-71
2021/05/20 09:02:27;;;;;;;56.00;32.80;;;15.50;39.30;;;;;;5054416;28;20451;-70
2021/05/20 09:04:59;;;;;;;54.13;30.63;;;15.40;39.50;;;;;;5052807;28;20206;-71
2021/05/20 09:07:35;;;;;;;50.07;27.77;;;15.60;40.60;;;;;;5037537;28;20852;-71
2021/05/20 09:10:10;;;;;;;40.13;25.20;;;15.70;38.40;;;;;;5054664;28;20403;-70
2021/05/20 09:12:36;;;;;;;39.73;24.67;;;15.80;36.80;;;;;;5040926;28;20439;-70
2021/05/20 09:15:12;;;;;;;37.10;23.50;;;16.20;35.20;;;;;;5058526;28;20479;-72
2021/05/20 09:17:37;;;;;;;33.37;22.20;;;16.60;32.50;;;;;;5069059;28;20433;-71
2021/05/20 09:20:03;;;;;;;32.70;22.17;;;16.70;32.10;;;;;;5054528;28;20465;-70
2021/05/20 09:22:29;;;;;;;36.07;24.40;;;16.60;31.70;;;;;;5054038;28;20179;-70
2021/05/20 09:24:59;;;;;;;34.43;22.07;;;17.00;31.00;;;;;;5054327;28;20453;-70
2021/05/20 09:27:41;;;;;;;33.87;22.10;;;17.00;29.90;;;;;;5051995;28;20257;-71
2021/05/20 09:30:19;;;;;;;34.87;21.50;;;16.90;30.40;;;;;;5035654;28;21001;-71
2021/05/20 09:32:48;;;;;;;32.73;22.03;;;16.90;31.10;;;;;;5053598;28;20412;-71
2021/05/20 09:35:18;;;;;;;35.50;22.70;;;16.60;31.20;;;;;;5054649;28;20413;-71
2021/05/20 09:37:47;;;;;;;31.53;20.93;;;16.40;32.30;;;;;;5053785;28;20401;-71
2021/05/20 09:40:14;;;;;;;28.77;20.93;;;16.30;31.40;;;;;;5051899;28;20484;-69
2021/05/20 09:42:39;;;;;;;33.93;20.33;;;16.20;31.80;;;;;;5055756;28;20416;-69
2021/05/20 09:45:07;;;;;;;31.50;21.60;;;16.40;32.00;;;;;;5052282;28;20853;-71
2021/05/20 09:47:33;;;;;;;36.20;21.37;;;16.60;30.00;;;;;;5065539;28;20220;-73
2021/05/20 09:50:21;;;;;;;33.17;21.10;;;16.90;30.30;;;;;;5054894;28;20426;-71
2021/05/20 09:52:48;;;;;;;25.90;17.77;;;16.80;30.40;;;;;;5052454;28;20175;-71
2021/05/20 09:55:26;;;;;;;29.37;19.07;;;16.60;30.30;;;;;;5057040;28;20436;-69
2021/05/20 09:57:54;;;;;;;33.30;19.33;;;16.70;29.40;;;;;;5064189;28;20412;-70
2021/05/20 10:00:24;;;;;;;30.77;19.33;;;16.70;30.40;;;;;;5073792;28;20444;-70
2021/05/20 10:03:02;;;;;;;29.03;19.00;;;16.10;30.90;;;;;;5073243;28;20536;-69
2021/05/20 10:05:31;;;;;;;35.40;20.10;;;16.20;30.70;;;;;;5072888;28;20455;-69
2021/05/20 10:07:59;;;;;;;31.43;19.90;;;16.50;31.10;;;;;;5063411;28;20415;-70
2021/05/20 10:10:25;;;;;;;26.73;18.23;;;16.30;30.80;;;;;;5033356;28;20488;-70
2021/05/20 10:12:51;;;;;;;25.10;16.57;;;16.30;31.90;;;;;;5033248;28;20923;-69
2021/05/20 10:15:21;;;;;;;31.53;17.37;;;16.00;29.80;;;;;;5033299;28;20425;-69
2021/05/20 10:17:48;;;;;;;28.60;18.70;;;16.40;31.30;;;;;;5033632;28;20504;-69
2021/05/20 10:20:22;;;;;;;26.27;16.57;;;16.70;29.60;;;;;;5033517;28;20434;-69
2021/05/20 10:22:49;;;;;;;20.87;15.07;;;16.60;29.90;;;;;;5033339;28;20410;-69
2021/05/20 10:25:18;;;;;;;21.03;14.73;;;16.80;28.10;;;;;;5033251;28;20457;-70
2021/05/20 10:27:44;;;;;;;24.73;16.20;;;16.80;28.70;;;;;;5032435;28;20473;-70
2021/05/20 10:30:15;;;;;;;27.00;15.60;;;16.90;28.50;;;;;;5032620;28;20439;-69
2021/05/20 10:32:43;;;;;;;25.30;15.10;;;16.90;28.40;;;;;;5033080;28;20917;-70
2021/05/20 10:35:12;;;;;;;20.93;13.60;;;16.90;28.30;;;;;;5033562;28;20510;-70
2021/05/20 10:37:39;;;;;;;19.87;13.30;;;17.00;27.00;;;;;;5033248;28;20474;-71
2021/05/20 10:40:10;;;;;;;16.40;11.63;;;17.10;26.60;;;;;;5032829;28;20450;-71
2021/05/20 10:42:42;;;;;;;18.27;11.40;;;17.20;25.50;;;;;;5032820;28;20437;-71
2021/05/20 10:45:22;;;;;;;16.07;10.50;;;17.30;25.90;;;;;;5032543;28;20531;-71
2021/05/20 10:48:07;;;;;;;23.10;11.37;;;17.30;25.30;;;;;;5046947;28;20554;-71
2021/05/20 10:50:52;;;;;;;15.90;10.43;;;17.60;25.10;;;;;;5073014;28;20429;-71
2021/05/20 10:53:45;;;;;;;15.17;11.87;;;17.80;24.50;;;;;;5071822;28;20455;-71
2021/05/20 10:56:14;;;;;;;15.40;10.00;;;18.00;24.20;;;;;;5074161;28;20420;-70
2021/05/20 10:58:40;;;;;;;18.43;11.60;;;18.00;22.60;;;;;;5072156;28;20514;-71
2021/05/20 11:01:31;;;;;;;14.30;10.50;;;18.00;22.70;;;;;;5072104;28;20485;-72
2021/05/20 11:03:58;;;;;;;18.03;11.27;;;17.90;22.60;;;;;;5071331;28;20444;-72
2021/05/20 11:06:46;;;;;;;17.80;10.33;;;18.10;23.20;;;;;;5071852;28;20400;-71
2021/05/20 11:09:15;;;;;;;29.80;12.10;;;18.30;21.30;;;;;;5042644;28;20915;-71
2021/05/20 11:11:41;;;;;;;14.40;11.10;;;18.00;21.60;;;;;;5032161;28;20399;-71
2021/05/20 11:14:26;;;;;;;11.80;8.30;;;17.80;22.30;;;;;;5032103;28;20425;-74
2021/05/20 11:16:53;;;;;;;14.57;9.70;;;17.80;18.90;;;;;;5032433;28;20175;-71
2021/05/20 11:19:22;;;;;;;14.00;10.07;;;17.90;18.80;;;;;;5030949;28;20473;-73
2021/05/20 11:21:57;;;;;;;14.23;10.50;;;17.90;19.40;;;;;;5033056;28;20410;-71
2021/05/20 11:24:23;;;;;;;14.37;10.90;;;17.90;21.00;;;;;;5031831;28;20461;-70
2021/05/20 11:27:18;;;;;;;12.47;9.40;;;18.10;20.60;;;;;;5031620;28;20411;-70
2021/05/20 11:29:47;;;;;;;10.37;8.10;;;18.20;18.80;;;;;;5032394;28;20501;-69
2021/05/20 11:37:36;;;;;;;10.23;7.27;;;18.40;18.00;;;;;;5032158;28;20500;-69
2021/05/20 11:40:05;;;;;;;12.13;6.83;;;18.50;16.50;;;;;;5031757;28;20461;-70
2021/05/20 11:42:32;;;;;;;11.73;7.60;;;18.40;16.80;;;;;;5032042;28;20414;-70
2021/05/20 11:45:03;;;;;;;10.03;6.50;;;18.20;16.90;;;;;;5031758;28;20454;-70
2021/05/20 11:47:29;;;;;;;9.50;7.00;;;18.00;17.00;;;;;;5042083;28;20404;-69
2021/05/20 11:49:55;;;;;;;9.60;6.37;;;17.90;17.10;;;;;;5072252;28;20962;-69
2021/05/20 11:52:25;;;;;;;7.00;5.30;;;18.10;18.40;;;;;;5071750;28;20661;-69
2021/05/20 11:54:52;;;;;;;7.50;5.67;;;18.30;17.10;;;;;;5071390;28;20481;-70
2021/05/20 11:57:25;;;;;;;11.50;6.60;;;18.60;16.70;;;;;;5071924;28;20411;-70
2021/05/20 11:59:53;;;;;;;13.97;6.07;;;18.80;15.30;;;;;;5072158;28;20444;-70
2021/05/20 12:02:23;;;;;;;9.90;7.60;;;18.30;17.30;;;;;;5072402;28;20499;-70
2021/05/20 12:05:06;;;;;;;8.37;7.00;;;18.60;16.70;;;;;;5071748;28;20459;-71
2021/05/20 12:07:33;;;;;;;5.23;4.73;;;18.60;16.40;;;;;;5069905;28;20400;-71
2021/05/20 12:10:38;;;;;;;7.67;5.23;;;18.40;15.20;;;;;;5030444;28;20450;-71
2021/05/20 12:13:07;;;;;;;13.73;5.97;;;18.30;16.70;;;;;;5027616;28;20414;-71
2021/05/20 12:15:33;;;;;;;7.37;5.63;;;18.30;16.70;;;;;;5031709;28;20414;-72
2021/05/20 12:18:00;;;;;;;7.60;5.77;;;18.20;16.50;;;;;;5031707;28;20421;-71
2021/05/20 12:20:28;;;;;;;4.63;4.23;;;18.40;15.80;;;;;;5031924;28;20980;-70
2021/05/20 12:22:54;;;;;;;5.50;4.70;;;18.60;15.20;;;;;;5035301;28;20414;-72
2021/05/20 12:25:23;;;;;;;5.60;4.17;;;19.00;14.10;;;;;;5035856;28;20458;-71
2021/05/20 12:27:51;;;;;;;7.47;4.83;;;19.60;13.40;;;;;;5035628;28;20923;-71
2021/05/20 12:30:23;;;;;;;6.27;4.53;;;20.00;13.00;;;;;;5037049;28;20435;-72
2021/05/20 12:32:53;;;;;;;8.37;5.30;;;20.70;12.70;;;;;;5035868;28;20427;-71
2021/05/20 12:35:43;;;;;;;8.00;4.43;;;20.70;11.90;;;;;;5035876;28;20549;-71
2021/05/20 12:38:12;;;;;;;6.90;4.83;;;20.40;12.10;;;;;;5028233;28;20436;-72
2021/05/20 12:40:50;;;;;;;6.50;4.50;;;20.50;12.00;;;;;;5079387;23;20486;-76
2021/05/20 12:43:38;;;;;;;11.57;4.20;;;20.60;12.10;;;;;;5089846;28;20470;-77
2021/05/20 12:46:12;;;;;;;5.87;4.60;;;21.10;10.50;;;;;;5091540;28;20409;-76
2021/05/20 12:48:43;;;;;;;6.73;5.13;;;21.20;9.50;;;;;;5085122;28;20413;-78